createdAt,value
2018-12-20T00:00:59.750Z,100.0
2018-12-20T00:02:01.014Z,100.0
2018-12-20T00:03:02.569Z,100.0
2018-12-20T00:04:03.835Z,100.0
2018-12-20T00:05:05.182Z,100.0
2018-12-20T00:06:06.600Z,100.0
2018-12-20T00:07:08.002Z,100.0
2018-12-20T00:08:09.426Z,100.0
2018-12-20T00:09:10.841Z,100.0
2018-12-20T00:10:12.222Z,100.0
2018-12-20T00:11:13.617Z,100.0
2018-12-20T00:12:15.114Z,100.0
2018-12-20T00:13:16.475Z,100.0
2018-12-20T00:14:17.788Z,100.0
2018-12-20T00:15:19.223Z,100.0
2018-12-20T00:16:20.692Z,100.0
2018-12-20T00:17:22.024Z,100.0
2018-12-20T00:18:23.421Z,100.0
2018-12-20T00:19:24.898Z,100.0
2018-12-20T00:20:26.168Z,100.0
2018-12-20T00:21:27.603Z,100.0
2018-12-20T00:22:28.973Z,100.0
2018-12-20T00:23:30.438Z,100.0
2018-12-20T00:24:31.777Z,100.0
2018-12-20T00:25:33.241Z,100.0
2018-12-20T00:26:34.641Z,100.0
2018-12-20T00:27:36.084Z,100.0
2018-12-20T00:28:37.466Z,100.0
2018-12-20T00:29:38.971Z,100.0
2018-12-20T00:30:40.269Z,100.0
2018-12-20T00:31:41.753Z,100.0
2018-12-20T00:32:43.119Z,100.0
2018-12-20T00:33:44.491Z,100.0
2018-12-20T00:34:45.897Z,100.0
2018-12-20T00:35:47.465Z,100.0
2018-12-20T00:36:48.679Z,100.0
2018-12-20T00:37:50.129Z,100.0
2018-12-20T00:38:51.476Z,100.0
2018-12-20T00:39:52.970Z,100.0
2018-12-20T00:40:54.260Z,100.0
2018-12-20T00:41:55.758Z,100.0
2018-12-20T00:42:57.042Z,100.0
2018-12-20T00:43:58.420Z,100.0
2018-12-20T00:44:59.865Z,100.0
2018-12-20T00:46:01.261Z,100.0
2018-12-20T00:47:02.670Z,100.0
2018-12-20T00:48:04.096Z,100.0
2018-12-20T00:49:05.470Z,100.0
2018-12-20T00:50:06.951Z,100.0
2018-12-20T00:51:08.372Z,100.0
2018-12-20T00:52:09.842Z,100.0
2018-12-20T00:53:11.244Z,100.0
2018-12-20T00:54:12.492Z,100.0
2018-12-20T00:55:13.910Z,100.0
2018-12-20T00:56:15.480Z,100.0
2018-12-20T00:57:16.836Z,100.0
2018-12-20T00:58:18.145Z,100.0
2018-12-20T00:59:19.472Z,100.0
2018-12-20T01:00:20.971Z,100.0
2018-12-20T01:01:22.271Z,100.0
2018-12-20T01:02:23.746Z,100.0
2018-12-20T01:03:25.062Z,100.0
2018-12-20T01:04:26.479Z,100.0
2018-12-20T01:05:28.019Z,100.0
2018-12-20T01:06:29.316Z,100.0
2018-12-20T01:07:30.592Z,100.0
2018-12-20T01:08:31.999Z,100.0
2018-12-20T01:09:33.467Z,100.0
2018-12-20T01:10:34.798Z,100.0
2018-12-20T01:11:36.371Z,100.0
2018-12-20T01:12:37.625Z,100.0
2018-12-20T01:13:38.997Z,100.0
2018-12-20T01:14:45.290Z,100.0
2018-12-20T01:15:41.803Z,100.0
2018-12-20T01:16:43.415Z,100.0
2018-12-20T01:17:44.600Z,100.0
2018-12-20T01:18:45.982Z,100.0
2018-12-20T01:19:47.387Z,100.0
2018-12-20T01:20:48.773Z,100.0
2018-12-20T01:21:50.312Z,100.0
2018-12-20T01:22:51.592Z,100.0
2018-12-20T01:23:53.069Z,100.0
2018-12-20T01:24:54.454Z,100.0
2018-12-20T01:25:55.894Z,100.0
2018-12-20T01:26:57.233Z,100.0
2018-12-20T01:27:58.645Z,100.0
2018-12-20T01:29:00.081Z,100.0
2018-12-20T01:30:01.495Z,100.0
2018-12-20T01:31:02.932Z,100.0
2018-12-20T01:32:04.425Z,100.0
2018-12-20T01:33:05.820Z,100.0
2018-12-20T01:34:07.136Z,100.0
2018-12-20T01:35:08.507Z,100.0
2018-12-20T01:36:10.025Z,100.0
2018-12-20T01:37:11.339Z,100.0
2018-12-20T01:38:12.772Z,100.0
2018-12-20T01:39:14.325Z,100.0
2018-12-20T01:40:15.522Z,100.0
2018-12-20T01:41:16.929Z,100.0
2018-12-20T01:42:18.342Z,100.0
2018-12-20T01:43:19.748Z,100.0
2018-12-20T01:44:21.205Z,100.0
2018-12-20T01:45:22.600Z,100.0
2018-12-20T01:46:24.020Z,100.0
2018-12-20T10:28:29.445Z,100.0
2018-12-20T10:29:30.827Z,100.0
2018-12-20T10:30:32.195Z,100.0
2018-12-20T10:31:33.571Z,100.0
2018-12-20T10:32:34.959Z,100.0
2018-12-20T10:33:36.429Z,100.0
2018-12-20T10:34:37.868Z,99.4
2018-12-20T10:35:39.296Z,99.1
2018-12-20T10:36:40.716Z,98.2
2018-12-20T10:37:42.156Z,97.0
2018-12-20T10:38:43.581Z,95.8
2018-12-20T10:39:45.030Z,96.7
2018-12-20T10:40:46.482Z,97.0
2018-12-20T10:41:47.880Z,97.5
2018-12-20T10:42:49.281Z,98.6
2018-12-20T10:43:50.738Z,99.1
2018-12-20T10:44:52.133Z,99.4
2018-12-20T10:45:53.694Z,99.8
2018-12-20T10:46:55.127Z,99.9
2018-12-20T10:47:56.516Z,100.0
2018-12-20T10:48:58.003Z,100.0
2018-12-20T10:49:59.458Z,100.0
2018-12-20T10:51:00.931Z,100.0
2018-12-20T10:52:02.370Z,99.9
2018-12-20T10:53:03.805Z,100.0
2018-12-20T10:54:05.230Z,100.0
2018-12-20T10:55:06.635Z,100.0
2018-12-20T10:56:08.081Z,100.0
2018-12-20T10:57:09.614Z,100.0
2018-12-20T10:58:11.108Z,100.0
2018-12-20T10:59:12.544Z,100.0
2018-12-20T11:00:14.006Z,100.0
2018-12-20T11:01:15.497Z,100.0
2018-12-20T11:02:16.982Z,100.0
2018-12-20T11:03:18.453Z,100.0
2018-12-20T11:04:19.929Z,100.0
2018-12-20T11:05:21.383Z,100.0
2018-12-20T11:06:22.786Z,100.0
2018-12-20T11:07:24.179Z,100.0
2018-12-20T11:08:25.659Z,100.0
2018-12-20T11:09:27.107Z,100.0
2018-12-20T11:10:28.544Z,100.0
2018-12-20T11:11:29.999Z,100.0
2018-12-20T11:12:31.446Z,100.0
2018-12-20T11:13:32.888Z,100.0
2018-12-20T11:14:34.357Z,100.0
2018-12-20T11:15:37.326Z,100.0
2018-12-20T11:16:37.145Z,100.0
2018-12-20T11:17:38.621Z,100.0
2018-12-20T11:18:40.073Z,100.0
2018-12-20T11:19:41.526Z,100.0
2018-12-20T11:20:42.917Z,100.0
2018-12-20T11:21:45.695Z,100.0
2018-12-20T11:22:45.743Z,100.0
2018-12-20T11:23:47.203Z,100.0
2018-12-20T11:24:48.646Z,100.0
2018-12-20T11:25:50.055Z,100.0
2018-12-20T11:26:51.494Z,100.0
2018-12-20T11:27:52.939Z,97.4
2018-12-20T11:28:54.353Z,92.5
2018-12-20T11:29:55.736Z,94.0
2018-12-20T11:30:57.226Z,95.1
2018-12-20T11:31:58.684Z,95.0
2018-12-20T11:33:00.100Z,95.7
2018-12-20T11:34:01.587Z,96.1
2018-12-20T11:35:02.992Z,97.0
2018-12-20T11:36:04.489Z,97.3
2018-12-20T11:37:05.940Z,97.6
2018-12-20T11:38:07.397Z,97.7
2018-12-20T11:39:08.896Z,97.6
2018-12-20T11:40:10.323Z,98.0
2018-12-20T11:41:11.756Z,98.3
2018-12-20T11:42:13.212Z,97.7
2018-12-20T11:43:14.675Z,97.7
2018-12-20T11:44:16.083Z,97.7
2018-12-20T11:45:17.526Z,97.8
2018-12-20T11:46:18.990Z,97.8
2018-12-20T11:47:20.397Z,97.8
2018-12-20T11:48:21.836Z,97.7
2018-12-20T11:49:23.347Z,97.0
2018-12-20T11:50:24.781Z,97.4
2018-12-20T11:51:26.298Z,97.5
2018-12-20T11:52:27.749Z,98.7
2018-12-20T11:53:29.272Z,99.0
2018-12-20T11:54:30.743Z,98.3
2018-12-20T11:55:32.212Z,98.9
2018-12-20T11:56:33.680Z,99.1
2018-12-20T11:57:35.187Z,99.2
2018-12-20T11:58:36.642Z,99.5
2018-12-20T11:59:38.080Z,99.3
2018-12-20T12:00:39.573Z,99.1
2018-12-20T12:01:41.020Z,99.0
2018-12-20T12:02:42.448Z,99.0
2018-12-20T12:03:43.904Z,98.9
2018-12-20T12:04:45.321Z,99.0
2018-12-20T12:05:46.806Z,100.0
2018-12-20T12:06:48.270Z,100.0
2018-12-20T12:07:49.728Z,100.0
2018-12-20T12:08:51.216Z,100.0
2018-12-20T12:09:52.582Z,100.0
2018-12-20T12:10:54.077Z,100.0
2018-12-20T12:11:55.587Z,100.0
2018-12-20T12:12:57.059Z,100.0
2018-12-20T12:13:58.515Z,100.0
2018-12-20T12:15:00.048Z,100.0
2018-12-20T12:16:01.597Z,100.0
2018-12-20T12:17:02.991Z,100.0
2018-12-20T12:18:04.447Z,99.3
2018-12-20T12:19:05.888Z,98.6
2018-12-20T12:20:07.321Z,98.9
2018-12-20T12:21:08.703Z,98.9
2018-12-20T12:22:10.155Z,99.3
2018-12-20T12:23:11.583Z,98.9
2018-12-20T12:24:13.037Z,97.7
2018-12-20T12:25:14.441Z,97.8
2018-12-20T12:26:15.984Z,98.2
2018-12-20T12:27:17.426Z,97.3
2018-12-20T12:28:18.942Z,96.7
2018-12-20T12:29:20.355Z,97.3
2018-12-20T12:30:21.774Z,98.0
2018-12-20T12:31:23.206Z,97.5
2018-12-20T12:32:24.680Z,98.0
2018-12-20T12:33:26.117Z,97.9
2018-12-20T12:34:27.531Z,96.7
2018-12-20T12:35:28.970Z,96.4
2018-12-20T12:36:30.446Z,95.2
2018-12-20T12:37:31.890Z,95.0
2018-12-20T12:38:33.420Z,95.2
2018-12-20T12:39:34.929Z,95.5
2018-12-20T12:40:36.344Z,95.2
2018-12-20T12:41:37.834Z,93.9
2018-12-20T12:42:39.242Z,94.5
2018-12-20T12:43:40.674Z,94.3
2018-12-20T12:44:42.116Z,91.8
2018-12-20T12:45:43.577Z,89.4
2018-12-20T12:46:45.026Z,88.1
2018-12-20T12:47:46.491Z,88.0
2018-12-20T12:48:47.886Z,88.7
2018-12-20T12:49:49.403Z,88.1
2018-12-20T12:50:50.826Z,86.9
2018-12-20T12:51:53.058Z,85.4
2018-12-20T12:52:53.640Z,84.4
2018-12-20T12:53:55.077Z,84.0
2018-12-20T12:54:56.516Z,85.3
2018-12-20T12:55:57.967Z,85.9
2018-12-20T12:56:59.386Z,86.4
2018-12-20T12:58:04.606Z,86.9
2018-12-20T12:59:02.202Z,87.9
2018-12-20T13:00:03.668Z,88.7
2018-12-20T13:01:05.136Z,90.3
2018-12-20T13:02:06.557Z,91.1
2018-12-20T13:03:08.024Z,91.1
2018-12-20T13:04:09.503Z,92.3
2018-12-20T13:05:10.935Z,92.6
2018-12-20T13:06:12.375Z,92.6
2018-12-20T13:07:13.785Z,94.0
2018-12-20T13:08:15.257Z,94.0
2018-12-20T13:09:16.622Z,94.1
2018-12-20T13:10:18.058Z,93.5
2018-12-20T13:11:19.481Z,93.9
2018-12-20T13:12:20.929Z,94.5
2018-12-20T13:13:22.328Z,94.7
2018-12-20T13:14:23.761Z,95.2
2018-12-20T13:15:25.195Z,96.1
2018-12-20T13:16:26.636Z,96.5
2018-12-20T13:17:28.056Z,96.8
2018-12-20T13:18:29.462Z,97.5
2018-12-20T13:19:30.901Z,97.5
2018-12-20T13:20:32.338Z,98.5
2018-12-20T13:21:33.783Z,99.0
2018-12-20T13:22:35.289Z,98.4
2018-12-20T13:23:36.748Z,98.8
2018-12-20T13:24:40.228Z,99.1
2018-12-20T13:25:39.589Z,99.8
2018-12-20T13:26:41.082Z,98.8
2018-12-20T13:27:42.534Z,99.1
2018-12-20T13:28:43.951Z,98.3
2018-12-20T13:29:45.398Z,98.8
2018-12-20T13:30:46.833Z,98.9
2018-12-20T13:31:48.317Z,98.3
2018-12-20T13:32:49.723Z,98.3
2018-12-20T13:33:51.100Z,99.2
2018-12-20T13:34:52.562Z,99.7
2018-12-20T13:35:53.991Z,98.8
2018-12-20T13:36:55.414Z,98.9
2018-12-20T13:37:56.853Z,98.8
2018-12-20T13:38:58.521Z,99.1
2018-12-20T13:39:59.922Z,98.8
2018-12-20T13:41:01.339Z,98.8
2018-12-20T13:42:03.784Z,99.2
2018-12-20T13:43:04.175Z,99.2
2018-12-20T13:44:05.627Z,99.7
2018-12-20T13:45:07.153Z,99.8
2018-12-20T13:46:08.556Z,99.2
2018-12-20T13:47:10.100Z,98.7
2018-12-20T13:48:11.538Z,98.8
2018-12-20T13:49:12.978Z,99.3
2018-12-20T13:50:14.405Z,99.8
2018-12-20T13:51:15.885Z,100.0
2018-12-20T13:52:17.304Z,100.0
2018-12-20T13:53:18.719Z,100.0
2018-12-20T13:54:20.125Z,100.0
2018-12-20T13:55:21.603Z,100.0
2018-12-20T13:56:23.026Z,100.0
2018-12-20T13:57:24.476Z,100.0
2018-12-20T13:58:25.914Z,100.0
2018-12-20T13:59:27.326Z,100.0
2018-12-20T14:00:28.824Z,100.0
2018-12-20T14:01:30.241Z,100.0
2018-12-20T14:02:31.636Z,100.0
2018-12-20T14:03:33.146Z,100.0
2018-12-20T14:04:34.550Z,100.0
2018-12-20T14:05:36.012Z,100.0
2018-12-20T14:06:37.427Z,100.0
2018-12-20T14:07:38.841Z,100.0
2018-12-20T14:08:40.271Z,100.0
2018-12-20T14:09:41.716Z,100.0
2018-12-20T14:10:43.127Z,100.0
2018-12-20T14:11:44.543Z,100.0
2018-12-20T14:12:45.965Z,100.0
2018-12-20T14:13:47.420Z,100.0
2018-12-20T14:14:48.850Z,100.0
2018-12-20T14:15:50.261Z,100.0
2018-12-20T14:16:51.693Z,100.0
2018-12-20T14:17:53.131Z,100.0
2018-12-20T14:18:54.608Z,100.0
2018-12-20T14:19:56.038Z,100.0
2018-12-20T14:20:57.480Z,100.0
2018-12-20T14:21:58.892Z,100.0
2018-12-20T14:23:00.327Z,100.0
2018-12-20T14:24:01.762Z,100.0
2018-12-20T14:25:03.344Z,100.0
2018-12-20T14:26:04.776Z,100.0
2018-12-20T14:27:06.219Z,100.0
2018-12-20T14:28:07.618Z,100.0
2018-12-20T14:29:09.057Z,100.0
2018-12-20T14:30:10.490Z,100.0
2018-12-20T14:31:11.894Z,100.0
2018-12-20T14:32:13.372Z,100.0
2018-12-20T14:33:14.785Z,100.0
2018-12-20T14:34:16.227Z,100.0
2018-12-20T14:35:17.635Z,100.0
2018-12-20T14:36:19.043Z,100.0
2018-12-20T14:37:21.636Z,100.0
2018-12-20T14:38:21.865Z,100.0
2018-12-20T14:39:23.300Z,100.0
2018-12-20T14:40:24.683Z,100.0
2018-12-20T14:41:26.115Z,100.0
2018-12-20T14:42:27.575Z,100.0
2018-12-20T14:43:29.006Z,100.0
2018-12-20T14:44:30.401Z,100.0
2018-12-20T14:45:31.828Z,100.0
2018-12-20T14:46:33.263Z,100.0
2018-12-20T14:47:34.709Z,100.0
2018-12-20T14:48:39.527Z,100.0
2018-12-20T14:49:37.566Z,100.0
2018-12-20T14:50:39.017Z,100.0
2018-12-20T14:51:40.556Z,100.0
2018-12-20T14:52:41.972Z,100.0
2018-12-20T14:53:43.511Z,100.0
2018-12-20T14:54:45.300Z,100.0
2018-12-20T14:55:47.526Z,100.0
2018-12-20T14:56:48.988Z,100.0
2018-12-20T14:57:50.407Z,100.0
2018-12-20T14:58:51.811Z,99.9
2018-12-20T14:59:53.219Z,100.0
2018-12-20T15:00:54.619Z,100.0
2018-12-20T15:01:56.031Z,100.0
2018-12-20T15:02:57.446Z,100.0
2018-12-20T15:03:58.838Z,100.0
2018-12-20T15:05:00.259Z,100.0
2018-12-20T15:06:01.672Z,100.0
2018-12-20T15:07:03.099Z,100.0
2018-12-20T15:08:04.517Z,100.0
2018-12-20T15:09:05.923Z,100.0
2018-12-20T15:10:07.366Z,100.0
2018-12-20T15:11:08.744Z,100.0
2018-12-20T15:12:10.169Z,100.0
2018-12-20T15:13:11.650Z,100.0
2018-12-20T15:14:13.059Z,100.0
2018-12-20T15:15:14.466Z,100.0
2018-12-20T15:16:15.897Z,100.0
2018-12-20T15:17:17.303Z,100.0
2018-12-20T15:18:18.698Z,100.0
2018-12-20T15:19:20.136Z,100.0
2018-12-20T15:20:21.750Z,100.0
2018-12-20T15:21:23.130Z,100.0
2018-12-20T15:22:24.502Z,100.0
2018-12-20T15:23:25.899Z,100.0
2018-12-20T15:24:27.312Z,100.0
2018-12-20T15:25:28.825Z,100.0
2018-12-20T15:26:30.463Z,100.0
2018-12-20T15:27:31.985Z,100.0
2018-12-20T15:28:33.404Z,100.0
2018-12-20T15:29:34.879Z,100.0
2018-12-20T15:30:36.267Z,100.0
2018-12-20T15:31:37.700Z,100.0
2018-12-20T15:32:39.172Z,100.0
2018-12-20T15:33:40.592Z,100.0
2018-12-20T15:34:42.030Z,100.0
2018-12-20T15:35:43.475Z,100.0
2018-12-20T15:36:44.899Z,100.0
2018-12-20T15:37:46.331Z,100.0
2018-12-20T15:38:49.731Z,100.0
2018-12-20T15:39:49.140Z,100.0
2018-12-20T15:40:50.614Z,100.0
2018-12-20T15:41:52.025Z,100.0
2018-12-20T15:42:53.498Z,100.0
2018-12-20T15:43:55.205Z,100.0
2018-12-20T15:44:56.846Z,100.0
2018-12-20T15:45:58.261Z,100.0
2018-12-20T15:46:59.671Z,100.0
2018-12-20T15:48:01.089Z,100.0
2018-12-20T15:49:02.493Z,100.0
2018-12-20T15:50:03.907Z,100.0
2018-12-20T15:51:05.305Z,100.0
2018-12-20T15:52:06.742Z,100.0
2018-12-20T15:53:08.167Z,100.0
2018-12-20T15:54:09.575Z,100.0
2018-12-20T15:55:10.980Z,100.0
2018-12-20T15:56:12.376Z,100.0
2018-12-20T15:57:13.783Z,100.0
2018-12-20T15:58:15.176Z,100.0
2018-12-20T15:59:16.556Z,100.0
2018-12-20T16:00:17.940Z,100.0
2018-12-20T16:01:19.333Z,100.0
2018-12-20T16:02:20.725Z,100.0
2018-12-20T16:03:22.103Z,100.0
2018-12-20T16:04:23.489Z,100.0
2018-12-20T16:05:24.870Z,100.0
2018-12-20T16:06:26.682Z,100.0
2018-12-20T16:07:28.048Z,100.0
2018-12-20T16:08:29.423Z,100.0
2018-12-20T16:09:30.819Z,100.0
2018-12-20T16:10:32.237Z,100.0
2018-12-20T16:11:33.653Z,100.0
2018-12-20T16:12:35.052Z,100.0
2018-12-20T16:13:36.420Z,100.0
2018-12-20T16:14:37.828Z,100.0
2018-12-20T16:15:39.205Z,100.0
2018-12-20T16:16:40.623Z,100.0
2018-12-20T16:17:42.002Z,100.0
2018-12-20T16:18:43.391Z,100.0
2018-12-20T16:19:44.802Z,100.0
2018-12-20T16:20:46.189Z,100.0
2018-12-20T16:21:47.568Z,100.0
2018-12-20T16:22:48.953Z,100.0
2018-12-20T16:23:50.359Z,100.0
2018-12-20T16:24:51.755Z,100.0
2018-12-20T16:25:53.160Z,100.0
2018-12-20T16:26:54.566Z,100.0
2018-12-20T16:27:55.946Z,100.0
2018-12-20T16:28:57.331Z,100.0
2018-12-20T16:29:58.721Z,100.0
2018-12-20T16:31:00.092Z,100.0
2018-12-20T16:32:01.486Z,100.0
2018-12-20T16:33:02.851Z,100.0
2018-12-20T16:34:04.235Z,100.0
2018-12-20T16:35:05.613Z,100.0
2018-12-20T16:36:06.992Z,100.0
2018-12-20T16:37:08.365Z,100.0
2018-12-20T16:38:12.553Z,100.0
2018-12-20T16:39:13.961Z,100.0
2018-12-20T16:40:15.359Z,100.0
2018-12-20T16:41:16.940Z,100.0
2018-12-20T16:42:18.364Z,100.0
2018-12-20T16:43:19.749Z,100.0
2018-12-20T16:44:21.181Z,100.0
2018-12-20T16:45:22.581Z,100.0
2018-12-20T16:46:23.966Z,100.0
2018-12-20T16:47:25.358Z,100.0
2018-12-20T16:48:26.769Z,100.0
2018-12-20T16:49:28.134Z,100.0
2018-12-20T16:50:29.549Z,100.0
2018-12-20T16:51:30.946Z,100.0
2018-12-20T16:52:32.404Z,100.0
2018-12-20T16:53:33.787Z,100.0
2018-12-20T16:54:35.164Z,100.0
2018-12-20T16:55:36.667Z,100.0
2018-12-20T16:56:38.064Z,100.0
2018-12-20T16:57:39.457Z,100.0
2018-12-20T16:58:40.878Z,100.0
2018-12-20T16:59:42.277Z,100.0
2018-12-20T17:00:43.670Z,100.0
2018-12-20T17:01:45.071Z,100.0
2018-12-20T17:02:46.462Z,100.0
2018-12-20T17:03:48.018Z,100.0
2018-12-20T17:04:49.458Z,100.0
2018-12-20T17:05:50.864Z,100.0
2018-12-20T17:06:52.286Z,100.0
2018-12-20T17:07:53.679Z,100.0
2018-12-20T17:08:55.118Z,100.0
2018-12-20T17:09:56.540Z,100.0
2018-12-20T17:10:57.979Z,100.0
2018-12-20T17:11:59.376Z,100.0
2018-12-20T17:13:00.807Z,100.0
2018-12-20T17:14:02.218Z,100.0
2018-12-20T17:15:03.606Z,100.0
2018-12-20T17:16:05.146Z,100.0
2018-12-20T17:17:06.423Z,100.0
2018-12-20T17:18:07.881Z,100.0
2018-12-20T17:19:09.283Z,100.0
2018-12-20T17:20:10.691Z,100.0
2018-12-20T17:21:12.121Z,100.0
2018-12-20T17:22:13.535Z,100.0
2018-12-20T17:23:14.922Z,100.0
2018-12-20T17:24:16.384Z,100.0
2018-12-20T17:25:17.795Z,100.0
2018-12-20T17:26:19.228Z,100.0
2018-12-20T17:27:20.626Z,100.0
2018-12-20T17:28:22.464Z,100.0
2018-12-20T17:29:23.975Z,100.0
2018-12-20T17:30:25.386Z,100.0
2018-12-20T17:31:26.797Z,100.0
2018-12-20T17:32:28.217Z,100.0
2018-12-20T17:33:29.624Z,100.0
2018-12-20T17:34:31.108Z,100.0
2018-12-20T17:35:32.533Z,100.0
2018-12-20T17:36:33.961Z,100.0
2018-12-20T17:37:35.390Z,100.0
2018-12-20T17:38:36.820Z,100.0
2018-12-20T17:39:38.237Z,100.0
2018-12-20T17:40:39.651Z,100.0
2018-12-20T17:41:41.186Z,100.0
2018-12-20T17:42:42.598Z,100.0
2018-12-20T17:43:43.958Z,100.0
2018-12-20T17:44:45.367Z,100.0
2018-12-20T17:45:46.769Z,100.0
2018-12-20T17:46:48.234Z,100.0
2018-12-20T17:47:49.641Z,100.0
2018-12-20T17:48:51.082Z,100.0
2018-12-20T17:49:52.501Z,100.0
2018-12-20T17:50:53.965Z,100.0
2018-12-20T17:51:55.393Z,100.0
2018-12-20T17:52:56.792Z,100.0
2018-12-20T17:53:58.220Z,100.0
2018-12-20T17:54:59.654Z,100.0
2018-12-20T17:56:01.103Z,100.0
2018-12-20T17:57:02.565Z,100.0
2018-12-20T17:58:03.993Z,100.0
2018-12-20T17:59:05.418Z,100.0
2018-12-20T18:00:06.857Z,100.0
2018-12-20T18:01:08.290Z,100.0
2018-12-20T18:02:09.696Z,100.0
2018-12-20T18:03:11.157Z,100.0
2018-12-20T18:04:12.575Z,100.0
2018-12-20T18:05:14.008Z,100.0
2018-12-20T18:06:15.419Z,100.0
2018-12-20T18:07:16.899Z,100.0
2018-12-20T18:08:18.342Z,100.0
2018-12-20T18:09:19.794Z,100.0
2018-12-20T18:10:21.420Z,100.0
2018-12-20T18:11:22.872Z,100.0
2018-12-20T18:12:24.321Z,100.0
2018-12-20T18:13:25.736Z,100.0
2018-12-20T18:14:27.170Z,100.0
2018-12-20T18:15:28.617Z,100.0
2018-12-20T18:16:30.048Z,100.0
2018-12-20T18:17:31.452Z,100.0
2018-12-20T18:18:32.876Z,100.0
2018-12-20T18:19:39.032Z,100.0
2018-12-20T18:20:35.614Z,100.0
2018-12-20T18:21:37.089Z,100.0
2018-12-20T18:22:38.486Z,100.0
2018-12-20T18:23:39.882Z,100.0
2018-12-20T18:24:41.295Z,100.0
2018-12-20T18:25:42.677Z,100.0
2018-12-20T18:26:44.161Z,100.0
2018-12-20T18:27:45.678Z,100.0
2018-12-20T18:28:47.773Z,100.0
2018-12-20T18:29:49.137Z,100.0
2018-12-20T18:30:50.518Z,100.0
2018-12-20T18:31:52.084Z,100.0
2018-12-20T18:32:53.505Z,100.0
2018-12-20T18:33:56.602Z,100.0
2018-12-20T18:35:00.057Z,100.0
2018-12-20T18:36:02.514Z,100.0
2018-12-20T18:37:04.473Z,100.0
2018-12-20T18:38:06.021Z,100.0
2018-12-20T18:39:08.903Z,100.0
2018-12-20T18:40:10.242Z,100.0
2018-12-20T18:41:11.644Z,100.0
2018-12-20T18:42:13.030Z,100.0
2018-12-20T18:43:14.400Z,100.0
2018-12-20T18:44:15.789Z,100.0
2018-12-20T18:45:17.305Z,100.0
2018-12-20T18:46:18.708Z,100.0
2018-12-20T18:47:20.084Z,100.0
2018-12-20T18:48:21.440Z,100.0
2018-12-20T18:49:23.025Z,100.0
2018-12-20T18:50:24.387Z,100.0
2018-12-20T18:51:25.802Z,100.0
2018-12-20T18:52:27.188Z,100.0
2018-12-20T18:53:28.600Z,100.0
2018-12-20T18:54:29.999Z,100.0
2018-12-20T18:55:31.421Z,100.0
2018-12-20T18:56:32.817Z,100.0
2018-12-20T18:57:34.205Z,100.0
2018-12-20T18:58:35.906Z,100.0
2018-12-20T18:59:37.588Z,100.0
2018-12-20T19:00:38.953Z,100.0
2018-12-20T19:01:40.349Z,100.0
2018-12-20T19:02:41.735Z,100.0
2018-12-20T19:03:43.134Z,100.0
2018-12-20T19:04:44.518Z,100.0
2018-12-20T19:05:45.903Z,100.0
2018-12-20T19:06:47.285Z,100.0
2018-12-20T19:07:48.682Z,100.0
2018-12-20T19:08:50.057Z,100.0
2018-12-20T19:09:51.449Z,100.0
2018-12-20T19:10:52.825Z,100.0
2018-12-20T19:11:54.199Z,100.0
2018-12-20T19:12:55.583Z,100.0
2018-12-20T19:13:57.002Z,100.0
2018-12-20T19:14:58.375Z,100.0
2018-12-20T19:15:59.775Z,100.0
2018-12-20T19:17:01.216Z,100.0
2018-12-20T19:18:02.591Z,100.0
2018-12-20T19:19:03.992Z,100.0
2018-12-20T19:20:05.510Z,100.0
2018-12-20T19:21:07.127Z,100.0
2018-12-20T19:22:08.763Z,100.0
2018-12-20T19:23:10.498Z,100.0
2018-12-20T19:24:12.169Z,100.0
2018-12-20T19:25:13.874Z,100.0
2018-12-20T19:26:15.478Z,100.0
2018-12-20T19:27:17.099Z,100.0
2018-12-20T19:28:18.712Z,100.0
2018-12-20T19:29:20.291Z,100.0
2018-12-20T19:30:21.966Z,100.0
2018-12-20T19:31:23.619Z,100.0
2018-12-20T19:32:25.283Z,100.0
2018-12-20T19:33:26.662Z,100.0
2018-12-20T19:34:28.039Z,100.0
2018-12-20T19:35:29.423Z,100.0
2018-12-20T19:36:30.807Z,100.0
2018-12-20T19:37:32.180Z,100.0
2018-12-20T19:38:33.552Z,100.0
2018-12-20T19:39:34.959Z,100.0
2018-12-20T19:40:36.352Z,100.0
2018-12-20T19:41:37.753Z,100.0
2018-12-20T19:42:39.146Z,100.0
2018-12-20T19:43:40.535Z,100.0
2018-12-20T19:44:41.920Z,100.0
2018-12-20T19:45:46.238Z,100.0
2018-12-20T19:46:44.674Z,100.0
2018-12-20T19:47:46.060Z,100.0
2018-12-20T19:48:47.439Z,100.0
2018-12-20T19:49:48.861Z,100.0
2018-12-20T19:50:50.236Z,100.0
2018-12-20T19:51:51.627Z,100.0
2018-12-20T19:52:53.056Z,100.0
2018-12-20T19:53:54.445Z,100.0
2018-12-20T19:54:55.842Z,100.0
2018-12-20T19:55:57.217Z,100.0
2018-12-20T19:56:58.594Z,100.0
2018-12-20T19:57:59.972Z,100.0
2018-12-20T19:59:01.359Z,100.0
2018-12-20T20:00:02.742Z,100.0
2018-12-20T20:01:04.176Z,100.0
2018-12-20T20:02:05.520Z,100.0
2018-12-20T20:03:07.075Z,100.0
2018-12-20T20:04:08.668Z,100.0
2018-12-20T20:05:10.302Z,100.0
2018-12-20T20:06:11.989Z,100.0
2018-12-20T20:07:13.732Z,100.0
2018-12-20T20:08:15.437Z,100.0
2018-12-20T20:09:17.192Z,100.0
2018-12-20T20:10:18.812Z,100.0
2018-12-20T20:11:20.536Z,100.0
2018-12-20T20:12:22.206Z,100.0
2018-12-20T20:13:30.501Z,100.0
2018-12-20T20:14:25.492Z,100.0
2018-12-20T20:15:27.128Z,100.0
2018-12-20T20:16:28.786Z,100.0
2018-12-20T20:17:30.181Z,100.0
2018-12-20T20:18:31.562Z,100.0
2018-12-20T20:19:33.017Z,100.0
2018-12-20T20:20:34.437Z,100.0
2018-12-20T20:21:35.907Z,100.0
2018-12-20T20:22:37.319Z,100.0
2018-12-20T20:23:38.732Z,100.0
2018-12-20T20:24:40.154Z,100.0
2018-12-20T20:25:41.617Z,100.0
2018-12-20T20:26:43.069Z,100.0
2018-12-20T20:27:44.502Z,100.0
2018-12-20T20:28:46.167Z,100.0
2018-12-20T20:29:47.818Z,100.0
2018-12-20T20:30:49.408Z,100.0
2018-12-20T20:31:51.082Z,100.0
2018-12-20T20:32:52.788Z,100.0
2018-12-20T20:33:54.422Z,100.0
2018-12-20T20:34:56.085Z,100.0
2018-12-20T20:35:57.717Z,100.0
2018-12-20T20:36:59.372Z,100.0
2018-12-20T20:38:01.147Z,100.0
2018-12-20T20:39:02.791Z,100.0
2018-12-20T20:40:04.488Z,100.0
2018-12-20T20:41:06.145Z,100.0
2018-12-20T20:42:07.834Z,100.0
2018-12-20T20:43:09.410Z,100.0
2018-12-20T20:44:11.078Z,100.0
2018-12-20T20:45:12.760Z,100.0
2018-12-20T20:46:14.441Z,100.0
2018-12-20T20:47:16.121Z,100.0
2018-12-20T20:48:17.808Z,100.0
2018-12-20T20:49:19.422Z,100.0
2018-12-20T20:50:22.687Z,100.0
2018-12-20T20:51:22.704Z,100.0
2018-12-20T20:52:24.407Z,100.0
2018-12-20T20:53:27.070Z,100.0
2018-12-20T20:54:28.454Z,100.0
2018-12-20T20:55:29.838Z,100.0
2018-12-20T20:56:31.215Z,100.0
2018-12-20T20:57:32.605Z,100.0
2018-12-20T20:58:33.973Z,100.0
2018-12-20T20:59:35.356Z,100.0
2018-12-20T21:00:36.728Z,100.0
2018-12-20T21:01:38.120Z,100.0
2018-12-20T21:02:39.518Z,100.0
2018-12-20T21:03:40.878Z,100.0
2018-12-20T21:04:42.269Z,100.0
2018-12-20T21:05:43.677Z,100.0
2018-12-20T21:06:47.046Z,100.0
2018-12-20T21:07:46.403Z,100.0
2018-12-20T21:08:47.786Z,100.0
2018-12-20T21:09:49.162Z,100.0
2018-12-20T21:10:50.541Z,100.0
2018-12-20T21:11:51.915Z,100.0
2018-12-20T21:12:53.315Z,100.0
2018-12-20T21:13:54.716Z,100.0
2018-12-20T21:14:56.107Z,100.0
2018-12-20T21:15:57.466Z,100.0
2018-12-20T21:16:58.846Z,100.0
2018-12-20T21:18:00.228Z,100.0
2018-12-20T21:19:01.609Z,100.0
2018-12-20T21:20:03.012Z,100.0
2018-12-20T21:21:04.410Z,100.0
2018-12-20T21:22:05.899Z,100.0
2018-12-20T21:23:07.285Z,100.0
2018-12-20T21:24:08.648Z,100.0
2018-12-20T21:25:10.056Z,100.0
2018-12-20T21:26:11.436Z,100.0
2018-12-20T21:27:12.837Z,100.0
2018-12-20T21:28:14.207Z,100.0
2018-12-20T21:29:15.678Z,100.0
2018-12-20T21:30:16.959Z,100.0
2018-12-20T21:31:18.325Z,100.0
2018-12-20T21:32:19.709Z,100.0
2018-12-20T21:33:21.092Z,100.0
2018-12-20T21:34:22.599Z,100.0
2018-12-20T21:35:24.306Z,100.0
2018-12-20T21:36:25.778Z,100.0
2018-12-20T21:37:27.153Z,100.0
2018-12-20T21:38:28.545Z,100.0
2018-12-20T21:39:29.935Z,100.0
2018-12-20T21:40:31.318Z,100.0
2018-12-20T21:41:32.799Z,100.0
2018-12-20T21:42:34.186Z,100.0
2018-12-20T21:43:35.628Z,100.0
2018-12-20T21:44:37.031Z,100.0
2018-12-20T21:45:38.416Z,100.0
2018-12-20T21:46:39.826Z,100.0
2018-12-20T21:47:41.383Z,100.0
2018-12-20T21:48:42.937Z,100.0
2018-12-20T21:49:44.413Z,100.0
2018-12-20T21:50:45.759Z,100.0
2018-12-20T21:51:47.148Z,100.0
2018-12-20T21:52:48.510Z,100.0
2018-12-20T21:53:54.843Z,100.0
2018-12-20T21:54:51.372Z,100.0
2018-12-20T21:55:52.830Z,100.0
2018-12-20T21:56:54.526Z,100.0
2018-12-20T21:57:55.902Z,100.0